Terminal Aerodrome Forecast
Issued by NWS Louisville, KY

Home | Current Version | Previous Version | Text Only | Print | Product List | Glossary On
Versions: 1 2 3 4 5 6 7 8 9 10 11 12
000
FTUS43 KLMK 291100
TAFLEX
TAF
KLEX 291120Z 2912/3012 19004KT P6SM SCT100
     FM291500 29006KT P6SM SCT050
     FM300000 02003KT P6SM SKC
     FM300800 00000KT 4SM BR SKC=

USA.gov is the U.S. government's official web portal to all federal, state and local government web resources and services.